sensor_id;sensor_type;location;lat;lon;timestamp;P1;durP1;ratioP1;P2;durP2;ratioP2
11496;SDS011;5805;51.542;7.230;2023-07-20T00:00:19;4.55;;;2.80;;
11496;SDS011;5805;51.542;7.230;2023-07-20T00:02:45;3.15;;;2.40;;
11496;SDS011;5805;51.542;7.230;2023-07-20T00:05:10;6.85;;;2.75;;
11496;SDS011;5805;51.542;7.230;2023-07-20T00:07:37;4.50;;;2.83;;
11496;SDS011;5805;51.542;7.230;2023-07-20T00:10:03;3.42;;;2.50;;
11496;SDS011;5805;51.542;7.230;2023-07-20T00:12:29;4.65;;;2.53;;
11496;SDS011;5805;51.542;7.230;2023-07-20T00:14:55;7.50;;;2.75;;
11496;SDS011;5805;51.542;7.230;2023-07-20T00:17:21;6.35;;;2.95;;
11496;SDS011;5805;51.542;7.230;2023-07-20T00:19:46;8.63;;;3.17;;
11496;SDS011;5805;51.542;7.230;2023-07-20T00:22:12;4.43;;;3.08;;
11496;SDS011;5805;51.542;7.230;2023-07-20T00:24:39;7.28;;;3.00;;
11496;SDS011;5805;51.542;7.230;2023-07-20T00:27:05;8.15;;;3.08;;
11496;SDS011;5805;51.542;7.230;2023-07-20T00:29:31;4.03;;;3.00;;
11496;SDS011;5805;51.542;7.230;2023-07-20T00:31:56;4.97;;;3.03;;
11496;SDS011;5805;51.542;7.230;2023-07-20T00:34:23;4.38;;;3.30;;
11496;SDS011;5805;51.542;7.230;2023-07-20T00:36:49;4.05;;;2.90;;
11496;SDS011;5805;51.542;7.230;2023-07-20T00:39:15;3.65;;;2.83;;
11496;SDS011;5805;51.542;7.230;2023-07-20T00:41:42;4.47;;;2.80;;
11496;SDS011;5805;51.542;7.230;2023-07-20T00:44:08;4.72;;;3.05;;
11496;SDS011;5805;51.542;7.230;2023-07-20T00:46:33;6.00;;;3.17;;
11496;SDS011;5805;51.542;7.230;2023-07-20T00:48:59;4.35;;;3.13;;
11496;SDS011;5805;51.542;7.230;2023-07-20T00:51:25;3.95;;;2.80;;
11496;SDS011;5805;51.542;7.230;2023-07-20T00:53:52;4.10;;;3.22;;
11496;SDS011;5805;51.542;7.230;2023-07-20T00:56:18;5.50;;;3.33;;
11496;SDS011;5805;51.542;7.230;2023-07-20T00:58:45;6.13;;;3.45;;
11496;SDS011;5805;51.542;7.230;2023-07-20T01:01:11;7.13;;;3.47;;
11496;SDS011;5805;51.542;7.230;2023-07-20T01:03:37;6.18;;;3.75;;
11496;SDS011;5805;51.542;7.230;2023-07-20T01:06:04;5.82;;;3.47;;
11496;SDS011;5805;51.542;7.230;2023-07-20T01:08:38;6.07;;;3.58;;
11496;SDS011;5805;51.542;7.230;2023-07-20T01:11:10;5.85;;;3.65;;
11496;SDS011;5805;51.542;7.230;2023-07-20T01:13:41;5.85;;;3.15;;
11496;SDS011;5805;51.542;7.230;2023-07-20T01:16:09;3.80;;;3.08;;
11496;SDS011;5805;51.542;7.230;2023-07-20T01:18:35;5.15;;;3.33;;
11496;SDS011;5805;51.542;7.230;2023-07-20T01:21:03;4.50;;;2.92;;
11496;SDS011;5805;51.542;7.230;2023-07-20T01:23:38;3.97;;;2.92;;
11496;SDS011;5805;51.542;7.230;2023-07-20T01:26:34;5.28;;;3.10;;
11496;SDS011;5805;51.542;7.230;2023-07-20T01:29:11;4.82;;;3.05;;
11496;SDS011;5805;51.542;7.230;2023-07-20T01:31:48;7.70;;;3.33;;
11496;SDS011;5805;51.542;7.230;2023-07-20T01:34:17;4.40;;;2.80;;
11496;SDS011;5805;51.542;7.230;2023-07-20T01:36:44;5.10;;;3.00;;
11496;SDS011;5805;51.542;7.230;2023-07-20T01:39:13;8.38;;;3.13;;
11496;SDS011;5805;51.542;7.230;2023-07-20T01:41:39;4.03;;;2.90;;
11496;SDS011;5805;51.542;7.230;2023-07-20T01:44:05;4.85;;;3.38;;
11496;SDS011;5805;51.542;7.230;2023-07-20T01:46:30;5.13;;;2.83;;
11496;SDS011;5805;51.542;7.230;2023-07-20T01:48:57;4.68;;;2.90;;
11496;SDS011;5805;51.542;7.230;2023-07-20T01:51:23;5.70;;;3.10;;
11496;SDS011;5805;51.542;7.230;2023-07-20T01:53:49;6.45;;;3.05;;
11496;SDS011;5805;51.542;7.230;2023-07-20T01:56:15;8.27;;;3.58;;
11496;SDS011;5805;51.542;7.230;2023-07-20T01:58:40;5.57;;;3.40;;
11496;SDS011;5805;51.542;7.230;2023-07-20T02:01:06;8.07;;;3.92;;
11496;SDS011;5805;51.542;7.230;2023-07-20T02:03:32;5.32;;;3.40;;
11496;SDS011;5805;51.542;7.230;2023-07-20T02:05:59;7.13;;;3.58;;
11496;SDS011;5805;51.542;7.230;2023-07-20T02:08:24;7.32;;;3.95;;
11496;SDS011;5805;51.542;7.230;2023-07-20T02:10:51;7.50;;;3.95;;
11496;SDS011;5805;51.542;7.230;2023-07-20T02:13:17;6.70;;;3.72;;
11496;SDS011;5805;51.542;7.230;2023-07-20T02:15:43;5.65;;;3.70;;
11496;SDS011;5805;51.542;7.230;2023-07-20T02:18:09;5.93;;;3.85;;
11496;SDS011;5805;51.542;7.230;2023-07-20T02:20:34;5.75;;;3.95;;
11496;SDS011;5805;51.542;7.230;2023-07-20T02:23:01;5.88;;;3.50;;
11496;SDS011;5805;51.542;7.230;2023-07-20T02:25:27;8.27;;;3.88;;
11496;SDS011;5805;51.542;7.230;2023-07-20T02:27:53;7.07;;;3.88;;
11496;SDS011;5805;51.542;7.230;2023-07-20T02:30:18;6.63;;;3.80;;
11496;SDS011;5805;51.542;7.230;2023-07-20T02:32:44;6.68;;;3.65;;
11496;SDS011;5805;51.542;7.230;2023-07-20T02:35:10;7.63;;;3.80;;
11496;SDS011;5805;51.542;7.230;2023-07-20T02:37:35;12.43;;;5.05;;
11496;SDS011;5805;51.542;7.230;2023-07-20T02:40:02;11.20;;;6.00;;
11496;SDS011;5805;51.542;7.230;2023-07-20T02:42:29;8.15;;;5.60;;
11496;SDS011;5805;51.542;7.230;2023-07-20T02:44:54;8.45;;;5.57;;
11496;SDS011;5805;51.542;7.230;2023-07-20T02:47:20;9.88;;;5.78;;
11496;SDS011;5805;51.542;7.230;2023-07-20T02:49:46;7.40;;;5.20;;
11496;SDS011;5805;51.542;7.230;2023-07-20T02:52:11;7.95;;;5.10;;
11496;SDS011;5805;51.542;7.230;2023-07-20T02:54:37;8.13;;;5.93;;
11496;SDS011;5805;51.542;7.230;2023-07-20T02:57:04;9.77;;;5.60;;
11496;SDS011;5805;51.542;7.230;2023-07-20T02:59:30;9.75;;;5.47;;
11496;SDS011;5805;51.542;7.230;2023-07-20T03:01:56;7.97;;;6.07;;
11496;SDS011;5805;51.542;7.230;2023-07-20T03:04:22;8.98;;;5.88;;
11496;SDS011;5805;51.542;7.230;2023-07-20T03:06:47;8.48;;;5.78;;
11496;SDS011;5805;51.542;7.230;2023-07-20T03:09:13;7.40;;;6.25;;
11496;SDS011;5805;51.542;7.230;2023-07-20T03:11:39;7.63;;;5.70;;
11496;SDS011;5805;51.542;7.230;2023-07-20T03:14:06;8.55;;;6.43;;
11496;SDS011;5805;51.542;7.230;2023-07-20T03:16:31;9.65;;;7.13;;
11496;SDS011;5805;51.542;7.230;2023-07-20T03:18:57;8.98;;;7.22;;
11496;SDS011;5805;51.542;7.230;2023-07-20T03:21:23;9.18;;;8.25;;
11496;SDS011;5805;51.542;7.230;2023-07-20T03:23:48;10.50;;;9.40;;
11496;SDS011;5805;51.542;7.230;2023-07-20T03:26:14;11.93;;;9.23;;
11496;SDS011;5805;51.542;7.230;2023-07-20T03:28:40;11.55;;;9.15;;
11496;SDS011;5805;51.542;7.230;2023-07-20T03:31:07;10.52;;;9.52;;
11496;SDS011;5805;51.542;7.230;2023-07-20T03:33:33;12.75;;;10.60;;
11496;SDS011;5805;51.542;7.230;2023-07-20T03:35:59;14.52;;;11.30;;
11496;SDS011;5805;51.542;7.230;2023-07-20T03:38:25;12.73;;;10.70;;
11496;SDS011;5805;51.542;7.230;2023-07-20T03:40:52;16.73;;;10.73;;
11496;SDS011;5805;51.542;7.230;2023-07-20T03:43:18;15.63;;;11.25;;
11496;SDS011;5805;51.542;7.230;2023-07-20T03:45:44;13.65;;;11.77;;
11496;SDS011;5805;51.542;7.230;2023-07-20T03:48:11;13.10;;;11.30;;
11496;SDS011;5805;51.542;7.230;2023-07-20T03:50:37;12.82;;;11.73;;
11496;SDS011;5805;51.542;7.230;2023-07-20T03:53:03;16.67;;;11.80;;
11496;SDS011;5805;51.542;7.230;2023-07-20T03:55:28;12.27;;;10.90;;
11496;SDS011;5805;51.542;7.230;2023-07-20T03:57:55;16.05;;;12.00;;
11496;SDS011;5805;51.542;7.230;2023-07-20T04:00:21;13.95;;;11.75;;
11496;SDS011;5805;51.542;7.230;2023-07-20T04:02:46;16.25;;;13.63;;
11496;SDS011;5805;51.542;7.230;2023-07-20T04:05:13;15.30;;;11.93;;
11496;SDS011;5805;51.542;7.230;2023-07-20T04:07:39;14.65;;;11.82;;
11496;SDS011;5805;51.542;7.230;2023-07-20T04:10:05;12.10;;;10.57;;
11496;SDS011;5805;51.542;7.230;2023-07-20T04:12:31;14.38;;;10.80;;
11496;SDS011;5805;51.542;7.230;2023-07-20T04:14:57;10.77;;;9.45;;
11496;SDS011;5805;51.542;7.230;2023-07-20T04:17:23;12.18;;;9.90;;
11496;SDS011;5805;51.542;7.230;2023-07-20T04:19:48;12.75;;;10.65;;
11496;SDS011;5805;51.542;7.230;2023-07-20T04:22:15;13.02;;;9.68;;
11496;SDS011;5805;51.542;7.230;2023-07-20T04:24:41;11.35;;;9.57;;
11496;SDS011;5805;51.542;7.230;2023-07-20T04:27:07;14.80;;;9.88;;
11496;SDS011;5805;51.542;7.230;2023-07-20T04:29:32;11.50;;;10.23;;
11496;SDS011;5805;51.542;7.230;2023-07-20T04:31:58;13.02;;;10.50;;
11496;SDS011;5805;51.542;7.230;2023-07-20T04:34:25;12.20;;;10.02;;
11496;SDS011;5805;51.542;7.230;2023-07-20T04:36:50;12.57;;;11.38;;
11496;SDS011;5805;51.542;7.230;2023-07-20T04:39:17;11.68;;;10.52;;
11496;SDS011;5805;51.542;7.230;2023-07-20T04:41:43;12.43;;;11.23;;
11496;SDS011;5805;51.542;7.230;2023-07-20T04:44:09;13.40;;;12.10;;
11496;SDS011;5805;51.542;7.230;2023-07-20T04:46:34;13.48;;;12.10;;
11496;SDS011;5805;51.542;7.230;2023-07-20T04:49:00;12.73;;;11.27;;
11496;SDS011;5805;51.542;7.230;2023-07-20T04:51:26;11.60;;;10.60;;
11496;SDS011;5805;51.542;7.230;2023-07-20T04:53:52;16.40;;;11.40;;
11496;SDS011;5805;51.542;7.230;2023-07-20T04:56:19;11.63;;;10.52;;
11496;SDS011;5805;51.542;7.230;2023-07-20T04:58:44;12.13;;;10.13;;
11496;SDS011;5805;51.542;7.230;2023-07-20T05:01:10;11.02;;;10.02;;
11496;SDS011;5805;51.542;7.230;2023-07-20T05:03:36;11.77;;;9.85;;
11496;SDS011;5805;51.542;7.230;2023-07-20T05:06:01;11.40;;;10.02;;
11496;SDS011;5805;51.542;7.230;2023-07-20T05:08:27;9.80;;;8.85;;
11496;SDS011;5805;51.542;7.230;2023-07-20T05:10:53;9.73;;;8.73;;
11496;SDS011;5805;51.542;7.230;2023-07-20T05:13:20;10.27;;;9.32;;
11496;SDS011;5805;51.542;7.230;2023-07-20T05:15:45;9.27;;;8.18;;
11496;SDS011;5805;51.542;7.230;2023-07-20T05:18:11;9.23;;;8.30;;
11496;SDS011;5805;51.542;7.230;2023-07-20T05:20:37;10.60;;;9.45;;
11496;SDS011;5805;51.542;7.230;2023-07-20T05:23:02;11.18;;;9.55;;
11496;SDS011;5805;51.542;7.230;2023-07-20T05:25:28;11.52;;;9.35;;
11496;SDS011;5805;51.542;7.230;2023-07-20T05:27:54;10.60;;;9.70;;
11496;SDS011;5805;51.542;7.230;2023-07-20T05:30:21;10.40;;;8.90;;
11496;SDS011;5805;51.542;7.230;2023-07-20T05:32:46;9.45;;;8.50;;
11496;SDS011;5805;51.542;7.230;2023-07-20T05:35:12;10.13;;;9.07;;
11496;SDS011;5805;51.542;7.230;2023-07-20T05:37:38;8.88;;;8.02;;
11496;SDS011;5805;51.542;7.230;2023-07-20T05:40:04;9.50;;;7.90;;
11496;SDS011;5805;51.542;7.230;2023-07-20T05:42:30;8.15;;;7.00;;
11496;SDS011;5805;51.542;7.230;2023-07-20T05:44:56;6.18;;;5.57;;
11496;SDS011;5805;51.542;7.230;2023-07-20T05:47:23;6.63;;;5.95;;
11496;SDS011;5805;51.542;7.230;2023-07-20T05:49:49;6.18;;;5.65;;
11496;SDS011;5805;51.542;7.230;2023-07-20T05:52:14;12.93;;;6.43;;
11496;SDS011;5805;51.542;7.230;2023-07-20T05:54:40;6.13;;;5.38;;
11496;SDS011;5805;51.542;7.230;2023-07-20T05:57:06;5.72;;;5.22;;
11496;SDS011;5805;51.542;7.230;2023-07-20T05:59:32;5.55;;;5.05;;
11496;SDS011;5805;51.542;7.230;2023-07-20T06:01:58;4.90;;;4.50;;
11496;SDS011;5805;51.542;7.230;2023-07-20T06:04:25;4.32;;;4.03;;
11496;SDS011;5805;51.542;7.230;2023-07-20T06:06:51;4.80;;;3.90;;
11496;SDS011;5805;51.542;7.230;2023-07-20T06:09:16;4.35;;;3.95;;
11496;SDS011;5805;51.542;7.230;2023-07-20T06:11:42;4.40;;;4.00;;
11496;SDS011;5805;51.542;7.230;2023-07-20T06:14:08;3.80;;;3.50;;
11496;SDS011;5805;51.542;7.230;2023-07-20T06:16:33;4.28;;;3.80;;
11496;SDS011;5805;51.542;7.230;2023-07-20T06:18:59;4.63;;;3.75;;
11496;SDS011;5805;51.542;7.230;2023-07-20T06:21:26;3.67;;;3.28;;
11496;SDS011;5805;51.542;7.230;2023-07-20T06:23:52;3.20;;;2.90;;
11496;SDS011;5805;51.542;7.230;2023-07-20T06:26:18;4.10;;;3.78;;
11496;SDS011;5805;51.542;7.230;2023-07-20T06:28:43;4.22;;;3.20;;
11496;SDS011;5805;51.542;7.230;2023-07-20T06:31:09;3.42;;;3.13;;
11496;SDS011;5805;51.542;7.230;2023-07-20T06:33:35;4.05;;;3.28;;
11496;SDS011;5805;51.542;7.230;2023-07-20T06:36:00;3.58;;;2.97;;
11496;SDS011;5805;51.542;7.230;2023-07-20T06:38:27;2.60;;;2.40;;
11496;SDS011;5805;51.542;7.230;2023-07-20T06:40:53;2.55;;;2.33;;
11496;SDS011;5805;51.542;7.230;2023-07-20T06:43:19;4.60;;;2.42;;
11496;SDS011;5805;51.542;7.230;2023-07-20T06:45:44;7.05;;;2.13;;
11496;SDS011;5805;51.542;7.230;2023-07-20T06:48:15;2.30;;;2.10;;
11496;SDS011;5805;51.542;7.230;2023-07-20T06:50:42;2.67;;;2.10;;
11496;SDS011;5805;51.542;7.230;2023-07-20T06:53:08;3.38;;;1.73;;
11496;SDS011;5805;51.542;7.230;2023-07-20T06:55:35;2.53;;;1.90;;
11496;SDS011;5805;51.542;7.230;2023-07-20T06:58:00;2.30;;;1.98;;
11496;SDS011;5805;51.542;7.230;2023-07-20T07:00:26;1.95;;;1.80;;
11496;SDS011;5805;51.542;7.230;2023-07-20T07:02:52;1.85;;;1.58;;
11496;SDS011;5805;51.542;7.230;2023-07-20T07:05:17;2.30;;;2.10;;
11496;SDS011;5805;51.542;7.230;2023-07-20T07:07:43;2.80;;;1.88;;
11496;SDS011;5805;51.542;7.230;2023-07-20T07:10:09;2.28;;;2.08;;
11496;SDS011;5805;51.542;7.230;2023-07-20T07:12:36;1.80;;;1.70;;
11496;SDS011;5805;51.542;7.230;2023-07-20T07:15:01;2.00;;;1.90;;
11496;SDS011;5805;51.542;7.230;2023-07-20T07:17:27;3.53;;;1.90;;
11496;SDS011;5805;51.542;7.230;2023-07-20T07:19:53;1.77;;;1.67;;
11496;SDS011;5805;51.542;7.230;2023-07-20T07:22:19;1.88;;;1.60;;
11496;SDS011;5805;51.542;7.230;2023-07-20T07:24:45;2.20;;;2.10;;
11496;SDS011;5805;51.542;7.230;2023-07-20T07:27:11;2.20;;;1.88;;
11496;SDS011;5805;51.542;7.230;2023-07-20T07:29:38;2.20;;;2.00;;
11496;SDS011;5805;51.542;7.230;2023-07-20T07:32:04;3.15;;;2.47;;
11496;SDS011;5805;51.542;7.230;2023-07-20T07:34:30;2.67;;;2.08;;
11496;SDS011;5805;51.542;7.230;2023-07-20T07:36:59;2.20;;;2.00;;
11496;SDS011;5805;51.542;7.230;2023-07-20T07:39:24;4.05;;;2.90;;
11496;SDS011;5805;51.542;7.230;2023-07-20T07:41:50;2.55;;;2.30;;
11496;SDS011;5805;51.542;7.230;2023-07-20T07:44:16;3.33;;;1.90;;
11496;SDS011;5805;51.542;7.230;2023-07-20T07:46:43;2.60;;;1.80;;
11496;SDS011;5805;51.542;7.230;2023-07-20T07:49:08;2.03;;;1.85;;
11496;SDS011;5805;51.542;7.230;2023-07-20T07:51:34;2.92;;;1.70;;
11496;SDS011;5805;51.542;7.230;2023-07-20T07:54:00;2.85;;;1.58;;
11496;SDS011;5805;51.542;7.230;2023-07-20T07:56:25;2.80;;;2.00;;
11496;SDS011;5805;51.542;7.230;2023-07-20T07:58:51;3.15;;;2.13;;
11496;SDS011;5805;51.542;7.230;2023-07-20T08:01:17;2.45;;;2.25;;
11496;SDS011;5805;51.542;7.230;2023-07-20T08:03:44;2.25;;;2.05;;
11496;SDS011;5805;51.542;7.230;2023-07-20T08:06:09;2.00;;;1.80;;
11496;SDS011;5805;51.542;7.230;2023-07-20T08:08:35;3.03;;;1.70;;
11496;SDS011;5805;51.542;7.230;2023-07-20T08:11:01;2.35;;;1.60;;
11496;SDS011;5805;51.542;7.230;2023-07-20T08:13:26;1.60;;;1.50;;
11496;SDS011;5805;51.542;7.230;2023-07-20T08:15:52;2.45;;;1.58;;
11496;SDS011;5805;51.542;7.230;2023-07-20T08:18:18;4.00;;;3.65;;
11496;SDS011;5805;51.542;7.230;2023-07-20T08:20:45;4.57;;;2.38;;
11496;SDS011;5805;51.542;7.230;2023-07-20T08:23:11;2.92;;;2.63;;
11496;SDS011;5805;51.542;7.230;2023-07-20T08:25:37;2.00;;;1.80;;
11496;SDS011;5805;51.542;7.230;2023-07-20T08:28:03;1.83;;;1.73;;
11496;SDS011;5805;51.542;7.230;2023-07-20T08:30:37;1.60;;;1.50;;
11496;SDS011;5805;51.542;7.230;2023-07-20T08:33:05;1.85;;;1.13;;
11496;SDS011;5805;51.542;7.230;2023-07-20T08:35:31;2.60;;;1.13;;
11496;SDS011;5805;51.542;7.230;2023-07-20T08:37:58;2.13;;;1.30;;
11496;SDS011;5805;51.542;7.230;2023-07-20T08:40:23;2.78;;;1.35;;
11496;SDS011;5805;51.542;7.230;2023-07-20T08:42:49;2.75;;;1.23;;
11496;SDS011;5805;51.542;7.230;2023-07-20T08:45:15;1.55;;;1.25;;
11496;SDS011;5805;51.542;7.230;2023-07-20T08:47:43;1.20;;;1.10;;
11496;SDS011;5805;51.542;7.230;2023-07-20T08:50:10;1.85;;;1.40;;
11496;SDS011;5805;51.542;7.230;2023-07-20T08:52:37;1.60;;;1.50;;
11496;SDS011;5805;51.542;7.230;2023-07-20T08:55:05;2.35;;;1.40;;
11496;SDS011;5805;51.542;7.230;2023-07-20T08:57:31;1.60;;;1.23;;
11496;SDS011;5805;51.542;7.230;2023-07-20T08:59:58;1.17;;;1.05;;
11496;SDS011;5805;51.542;7.230;2023-07-20T09:02:25;3.85;;;1.33;;
11496;SDS011;5805;51.542;7.230;2023-07-20T09:04:52;1.98;;;1.45;;
11496;SDS011;5805;51.542;7.230;2023-07-20T09:07:18;1.48;;;1.35;;
11496;SDS011;5805;51.542;7.230;2023-07-20T09:09:45;1.70;;;1.40;;
11496;SDS011;5805;51.542;7.230;2023-07-20T09:12:15;1.60;;;1.20;;
11496;SDS011;5805;51.542;7.230;2023-07-20T09:14:42;1.30;;;1.20;;
11496;SDS011;5805;51.542;7.230;2023-07-20T09:17:08;1.73;;;1.45;;
11496;SDS011;5805;51.542;7.230;2023-07-20T09:19:38;1.80;;;1.40;;
11496;SDS011;5805;51.542;7.230;2023-07-20T09:22:04;2.70;;;1.42;;
11496;SDS011;5805;51.542;7.230;2023-07-20T09:24:30;1.02;;;0.90;;
11496;SDS011;5805;51.542;7.230;2023-07-20T09:26:57;2.75;;;0.90;;
11496;SDS011;5805;51.542;7.230;2023-07-20T09:29:27;0.70;;;0.70;;
11496;SDS011;5805;51.542;7.230;2023-07-20T09:31:59;0.95;;;0.82;;
11496;SDS011;5805;51.542;7.230;2023-07-20T09:34:25;1.85;;;1.70;;
11496;SDS011;5805;51.542;7.230;2023-07-20T09:36:51;1.10;;;1.00;;
11496;SDS011;5805;51.542;7.230;2023-07-20T09:39:17;1.58;;;1.10;;
11496;SDS011;5805;51.542;7.230;2023-07-20T09:41:42;1.25;;;1.00;;
11496;SDS011;5805;51.542;7.230;2023-07-20T09:44:08;1.40;;;1.00;;
11496;SDS011;5805;51.542;7.230;2023-07-20T09:46:43;0.88;;;0.88;;
11496;SDS011;5805;51.542;7.230;2023-07-20T09:49:10;1.15;;;1.02;;
11496;SDS011;5805;51.542;7.230;2023-07-20T09:51:36;1.92;;;1.50;;
11496;SDS011;5805;51.542;7.230;2023-07-20T09:54:02;1.55;;;1.30;;
11496;SDS011;5805;51.542;7.230;2023-07-20T09:56:28;1.20;;;1.10;;
11496;SDS011;5805;51.542;7.230;2023-07-20T09:58:55;1.35;;;1.25;;
11496;SDS011;5805;51.542;7.230;2023-07-20T10:01:21;1.48;;;1.10;;
11496;SDS011;5805;51.542;7.230;2023-07-20T10:03:49;1.48;;;1.38;;
11496;SDS011;5805;51.542;7.230;2023-07-20T10:06:20;1.40;;;1.30;;
11496;SDS011;5805;51.542;7.230;2023-07-20T10:08:49;1.50;;;1.40;;
11496;SDS011;5805;51.542;7.230;2023-07-20T10:11:18;1.10;;;1.10;;
11496;SDS011;5805;51.542;7.230;2023-07-20T10:13:46;2.08;;;1.30;;
11496;SDS011;5805;51.542;7.230;2023-07-20T10:16:18;1.40;;;1.30;;
11496;SDS011;5805;51.542;7.230;2023-07-20T10:18:51;1.35;;;1.20;;
11496;SDS011;5805;51.542;7.230;2023-07-20T10:21:20;1.60;;;1.30;;
11496;SDS011;5805;51.542;7.230;2023-07-20T10:23:46;1.38;;;1.27;;
11496;SDS011;5805;51.542;7.230;2023-07-20T10:26:12;1.20;;;1.10;;
11496;SDS011;5805;51.542;7.230;2023-07-20T10:28:39;1.63;;;1.10;;
11496;SDS011;5805;51.542;7.230;2023-07-20T10:31:05;1.40;;;1.30;;
11496;SDS011;5805;51.542;7.230;2023-07-20T10:33:32;1.40;;;1.23;;
11496;SDS011;5805;51.542;7.230;2023-07-20T10:36:02;1.55;;;1.20;;
11496;SDS011;5805;51.542;7.230;2023-07-20T10:38:38;1.40;;;1.30;;
11496;SDS011;5805;51.542;7.230;2023-07-20T10:41:04;1.25;;;1.15;;
11496;SDS011;5805;51.542;7.230;2023-07-20T10:43:42;1.77;;;1.25;;
11496;SDS011;5805;51.542;7.230;2023-07-20T10:46:07;1.10;;;1.08;;
11496;SDS011;5805;51.542;7.230;2023-07-20T10:48:36;1.35;;;1.25;;
11496;SDS011;5805;51.542;7.230;2023-07-20T10:51:26;1.10;;;1.00;;
11496;SDS011;5805;51.542;7.230;2023-07-20T10:53:52;1.00;;;0.90;;
11496;SDS011;5805;51.542;7.230;2023-07-20T10:56:19;2.60;;;0.98;;
11496;SDS011;5805;51.542;7.230;2023-07-20T10:58:45;2.28;;;0.90;;
11496;SDS011;5805;51.542;7.230;2023-07-20T11:01:13;1.45;;;0.75;;
11496;SDS011;5805;51.542;7.230;2023-07-20T11:03:40;0.82;;;0.70;;
11496;SDS011;5805;51.542;7.230;2023-07-20T11:09:02;5.10;;;1.08;;
11496;SDS011;5805;51.542;7.230;2023-07-20T11:11:30;0.85;;;0.85;;
11496;SDS011;5805;51.542;7.230;2023-07-20T11:13:57;0.75;;;0.63;;
11496;SDS011;5805;51.542;7.230;2023-07-20T11:16:33;2.75;;;1.00;;
11496;SDS011;5805;51.542;7.230;2023-07-20T11:19:03;1.60;;;0.82;;
11496;SDS011;5805;51.542;7.230;2023-07-20T11:21:29;1.15;;;0.70;;
11496;SDS011;5805;51.542;7.230;2023-07-20T11:24:02;0.85;;;0.82;;
11496;SDS011;5805;51.542;7.230;2023-07-20T11:26:29;1.23;;;0.90;;
11496;SDS011;5805;51.542;7.230;2023-07-20T11:28:54;1.98;;;0.90;;
11496;SDS011;5805;51.542;7.230;2023-07-20T11:31:20;0.95;;;0.80;;
11496;SDS011;5805;51.542;7.230;2023-07-20T11:33:46;0.80;;;0.80;;
11496;SDS011;5805;51.542;7.230;2023-07-20T11:36:12;0.75;;;0.70;;
11496;SDS011;5805;51.542;7.230;2023-07-20T11:38:39;0.60;;;0.60;;
11496;SDS011;5805;51.542;7.230;2023-07-20T11:41:06;0.70;;;0.70;;
11496;SDS011;5805;51.542;7.230;2023-07-20T11:43:32;1.20;;;0.70;;
11496;SDS011;5805;51.542;7.230;2023-07-20T11:45:58;0.88;;;0.57;;
11496;SDS011;5805;51.542;7.230;2023-07-20T11:48:24;1.15;;;0.60;;
11496;SDS011;5805;51.542;7.230;2023-07-20T11:50:50;1.05;;;0.63;;
11496;SDS011;5805;51.542;7.230;2023-07-20T11:53:16;0.73;;;0.73;;
11496;SDS011;5805;51.542;7.230;2023-07-20T11:55:43;2.55;;;0.70;;
11496;SDS011;5805;51.542;7.230;2023-07-20T11:58:10;0.73;;;0.73;;
11496;SDS011;5805;51.542;7.230;2023-07-20T12:00:37;4.20;;;0.90;;
11496;SDS011;5805;51.542;7.230;2023-07-20T12:03:05;1.63;;;0.70;;
11496;SDS011;5805;51.542;7.230;2023-07-20T12:05:31;0.70;;;0.70;;
11496;SDS011;5805;51.542;7.230;2023-07-20T12:07:57;0.65;;;0.65;;
11496;SDS011;5805;51.542;7.230;2023-07-20T12:10:25;0.63;;;0.63;;
11496;SDS011;5805;51.542;7.230;2023-07-20T12:12:53;0.85;;;0.73;;
11496;SDS011;5805;51.542;7.230;2023-07-20T12:15:20;0.65;;;0.60;;
11496;SDS011;5805;51.542;7.230;2023-07-20T12:17:49;2.60;;;0.77;;
11496;SDS011;5805;51.542;7.230;2023-07-20T12:20:24;2.83;;;0.70;;
11496;SDS011;5805;51.542;7.230;2023-07-20T12:22:50;1.60;;;0.90;;
11496;SDS011;5805;51.542;7.230;2023-07-20T12:25:16;0.70;;;0.70;;
11496;SDS011;5805;51.542;7.230;2023-07-20T12:27:42;0.70;;;0.70;;
11496;SDS011;5805;51.542;7.230;2023-07-20T12:30:11;2.60;;;0.80;;
11496;SDS011;5805;51.542;7.230;2023-07-20T12:32:37;2.08;;;0.70;;
11496;SDS011;5805;51.542;7.230;2023-07-20T12:35:02;1.08;;;0.70;;
11496;SDS011;5805;51.542;7.230;2023-07-20T12:37:28;0.60;;;0.60;;
11496;SDS011;5805;51.542;7.230;2023-07-20T12:39:54;0.80;;;0.80;;
11496;SDS011;5805;51.542;7.230;2023-07-20T12:42:20;0.65;;;0.60;;
11496;SDS011;5805;51.542;7.230;2023-07-20T12:44:45;1.13;;;0.80;;
11496;SDS011;5805;51.542;7.230;2023-07-20T12:47:15;1.55;;;0.60;;
11496;SDS011;5805;51.542;7.230;2023-07-20T12:49:41;0.68;;;0.68;;
11496;SDS011;5805;51.542;7.230;2023-07-20T12:52:07;3.13;;;0.75;;
11496;SDS011;5805;51.542;7.230;2023-07-20T12:54:33;0.57;;;0.50;;
11496;SDS011;5805;51.542;7.230;2023-07-20T12:56:58;1.05;;;0.70;;
11496;SDS011;5805;51.542;7.230;2023-07-20T12:59:24;1.30;;;0.77;;
11496;SDS011;5805;51.542;7.230;2023-07-20T13:01:50;1.17;;;0.88;;
11496;SDS011;5805;51.542;7.230;2023-07-20T13:04:17;0.95;;;0.85;;
11496;SDS011;5805;51.542;7.230;2023-07-20T13:06:42;1.35;;;0.70;;
11496;SDS011;5805;51.542;7.230;2023-07-20T13:09:08;2.17;;;0.70;;
11496;SDS011;5805;51.542;7.230;2023-07-20T13:11:33;1.10;;;0.80;;
11496;SDS011;5805;51.542;7.230;2023-07-20T13:13:59;0.57;;;0.57;;
11496;SDS011;5805;51.542;7.230;2023-07-20T13:16:25;0.73;;;0.60;;
11496;SDS011;5805;51.542;7.230;2023-07-20T13:18:50;3.35;;;1.10;;
11496;SDS011;5805;51.542;7.230;2023-07-20T13:21:17;1.00;;;0.77;;
11496;SDS011;5805;51.542;7.230;2023-07-20T13:23:43;2.75;;;0.77;;
11496;SDS011;5805;51.542;7.230;2023-07-20T13:26:09;1.00;;;0.75;;
11496;SDS011;5805;51.542;7.230;2023-07-20T13:28:34;0.60;;;0.50;;
11496;SDS011;5805;51.542;7.230;2023-07-20T13:31:00;0.80;;;0.80;;
11496;SDS011;5805;51.542;7.230;2023-07-20T13:33:26;0.60;;;0.60;;
11496;SDS011;5805;51.542;7.230;2023-07-20T13:35:51;0.60;;;0.60;;
11496;SDS011;5805;51.542;7.230;2023-07-20T13:38:18;0.70;;;0.70;;
11496;SDS011;5805;51.542;7.230;2023-07-20T13:40:44;0.63;;;0.63;;
11496;SDS011;5805;51.542;7.230;2023-07-20T13:43:10;1.77;;;0.82;;
11496;SDS011;5805;51.542;7.230;2023-07-20T13:45:35;0.60;;;0.45;;
11496;SDS011;5805;51.542;7.230;2023-07-20T13:48:01;0.70;;;0.70;;
11496;SDS011;5805;51.542;7.230;2023-07-20T13:50:27;0.90;;;0.80;;
11496;SDS011;5805;51.542;7.230;2023-07-20T13:52:52;1.48;;;0.68;;
11496;SDS011;5805;51.542;7.230;2023-07-20T13:55:19;0.98;;;0.73;;
11496;SDS011;5805;51.542;7.230;2023-07-20T13:57:45;1.45;;;0.90;;
11496;SDS011;5805;51.542;7.230;2023-07-20T14:00:12;1.67;;;0.68;;
11496;SDS011;5805;51.542;7.230;2023-07-20T14:02:38;1.35;;;0.80;;
11496;SDS011;5805;51.542;7.230;2023-07-20T14:05:04;0.98;;;0.85;;
11496;SDS011;5805;51.542;7.230;2023-07-20T14:07:30;2.78;;;0.90;;
11496;SDS011;5805;51.542;7.230;2023-07-20T14:09:56;1.00;;;0.77;;
11496;SDS011;5805;51.542;7.230;2023-07-20T14:12:23;4.18;;;0.75;;
11496;SDS011;5805;51.542;7.230;2023-07-20T14:14:49;0.63;;;0.57;;
11496;SDS011;5805;51.542;7.230;2023-07-20T14:17:14;1.08;;;0.88;;
11496;SDS011;5805;51.542;7.230;2023-07-20T14:19:40;1.75;;;0.80;;
11496;SDS011;5805;51.542;7.230;2023-07-20T14:22:06;1.13;;;0.63;;
11496;SDS011;5805;51.542;7.230;2023-07-20T14:24:31;0.63;;;0.60;;
11496;SDS011;5805;51.542;7.230;2023-07-20T14:26:57;1.08;;;0.98;;
11496;SDS011;5805;51.542;7.230;2023-07-20T14:29:24;1.80;;;0.98;;
11496;SDS011;5805;51.542;7.230;2023-07-20T14:31:50;1.60;;;1.50;;
11496;SDS011;5805;51.542;7.230;2023-07-20T14:34:16;3.00;;;1.02;;
11496;SDS011;5805;51.542;7.230;2023-07-20T14:36:41;0.80;;;0.80;;
11496;SDS011;5805;51.542;7.230;2023-07-20T14:39:07;1.20;;;0.90;;
11496;SDS011;5805;51.542;7.230;2023-07-20T14:41:33;1.55;;;0.70;;
11496;SDS011;5805;51.542;7.230;2023-07-20T14:43:58;0.80;;;0.75;;
11496;SDS011;5805;51.542;7.230;2023-07-20T14:46:25;0.90;;;0.90;;
11496;SDS011;5805;51.542;7.230;2023-07-20T14:48:51;0.88;;;0.80;;
11496;SDS011;5805;51.542;7.230;2023-07-20T14:51:17;2.47;;;1.00;;
11496;SDS011;5805;51.542;7.230;2023-07-20T14:53:42;0.60;;;0.60;;
11496;SDS011;5805;51.542;7.230;2023-07-20T14:56:08;1.00;;;0.90;;